Cheboygan, Michigan
Current Conditions -  °F | °C
As of 4:17 PM on Thursday 20 Nov 2014 (Local Time) from KSLH Reporting Station
Light Snow Light Snow  
Wind Chill:   Ceiling: 1500
Heat Index: 22°   Visibility: 1.5mi
Dew Point: 15°   Wind: 21mph
Humidity: 73%   Direction: 280°W
Pressure: 29.84"   Gusts: 31mph
Location:  45.65°N, 84.47°W
Report Text: KSLH 202117Z AUTO 28018G27KT 1 1/2SM -SN BKN015 BKN022 OVC030 M05/M10 A2984 RMK AO2 T10551097
Loading
Personal Weather Stations






























Interactive Weather Map New forecast layout! Learn more

10-Day Weather Forecast

Advertisements
Track Severe Weather on mobile